createdAt,value
2022-09-12T00:00:08.814Z,100608.81
2022-09-12T00:03:13.849Z,100607.30
2022-09-12T00:05:55.592Z,100609.91
2022-09-12T00:08:37.702Z,100608.38
2022-09-12T00:11:19.845Z,100605.65
2022-09-12T00:14:02.354Z,100607.50
2022-09-12T00:16:44.596Z,100602.20
2022-09-12T00:19:28.166Z,100604.98
2022-09-12T00:22:10.090Z,100602.12
2022-09-12T00:24:51.984Z,100600.08
2022-09-12T00:27:33.778Z,100603.39
2022-09-12T00:30:15.571Z,100603.10
2022-09-12T00:32:57.364Z,100601.27
2022-09-12T00:35:47.716Z,100600.59
2022-09-12T00:38:29.559Z,100601.70
2022-09-12T00:41:17.389Z,100599.46
2022-09-12T00:44:23.758Z,100600.52
2022-09-12T00:47:31.254Z,100601.86
2022-09-12T00:50:15.197Z,100603.30
2022-09-12T00:53:02.887Z,100601.83
2022-09-12T00:55:50.458Z,100601.31
2022-09-12T00:58:42.391Z,100599.70
2022-09-12T01:01:27.323Z,100596.73
2022-09-12T01:04:13.029Z,100599.41
2022-09-12T01:06:58.519Z,100602.06
2022-09-12T01:09:42.226Z,100603.73
2022-09-12T01:12:24.667Z,100605.81
2022-09-12T01:15:08.740Z,100603.94
2022-09-12T01:18:05.869Z,100604.86
2022-09-12T01:21:13.671Z,100602.27
2022-09-12T01:24:04.373Z,100605.58
2022-09-12T01:26:57.635Z,100599.72
2022-09-12T01:30:16.599Z,100601.56
2022-09-12T01:33:04.126Z,100603.23
2022-09-12T01:36:03.839Z,100602.27
2022-09-12T01:38:53.314Z,100602.77
2022-09-12T01:41:56.098Z,100605.36
2022-09-12T01:45:03.597Z,100606.27
2022-09-12T01:47:54.501Z,100607.79
2022-09-12T01:50:52.782Z,100605.30
2022-09-12T01:53:44.266Z,100610.34
2022-09-12T01:56:29.846Z,100606.67
2022-09-12T01:59:30.091Z,100611.36
2022-09-12T02:02:18.030Z,100611.67
2022-09-12T02:05:10.186Z,100609.24
2022-09-12T02:07:57.404Z,100610.79
2022-09-12T02:10:48.004Z,100612.30
2022-09-12T02:13:35.984Z,100617.10
2022-09-12T02:16:35.411Z,100623.06
2022-09-12T02:19:24.371Z,100618.63
2022-09-12T02:22:10.198Z,100620.13
2022-09-12T02:24:57.121Z,100617.73
2022-09-12T02:27:46.894Z,100614.38
2022-09-12T02:30:35.982Z,100612.77
2022-09-12T02:33:25.097Z,100610.20
2022-09-12T02:36:27.805Z,100611.86
2022-09-12T02:39:09.905Z,100617.14
2022-09-12T02:41:53.165Z,100614.67
2022-09-12T02:44:36.322Z,100617.98
2022-09-12T02:47:29.212Z,100616.59
2022-09-12T02:50:12.132Z,100615.93
2022-09-12T02:52:55.756Z,100616.02
2022-09-12T02:55:40.633Z,100620.38
2022-09-12T02:58:26.523Z,100622.15
2022-09-12T03:01:46.325Z,100619.80
2022-09-12T03:04:46.339Z,100622.83
2022-09-12T03:07:49.112Z,100623.90
2022-09-12T03:10:52.883Z,100620.49
2022-09-12T03:13:59.011Z,100618.73
2022-09-12T03:17:23.991Z,100616.11
2022-09-12T03:20:15.307Z,100616.22
2022-09-12T03:23:13.946Z,100619.91
2022-09-12T03:26:03.059Z,100621.56
2022-09-12T03:28:47.630Z,100621.00
2022-09-12T03:31:29.719Z,100623.58
2022-09-12T03:34:13.457Z,100623.83
2022-09-12T03:36:56.173Z,100629.20
2022-09-12T03:39:38.787Z,100628.55
2022-09-12T03:42:20.681Z,100626.86
2022-09-12T03:45:02.476Z,100627.80
2022-09-12T03:47:44.473Z,100630.33
2022-09-12T03:50:26.579Z,100625.95
2022-09-12T03:53:08.468Z,100627.50
2022-09-12T03:55:50.262Z,100625.48
2022-09-12T03:58:32.157Z,100629.46
2022-09-12T04:01:16.348Z,100626.98
2022-09-12T04:03:58.305Z,100629.13
2022-09-12T04:06:40.609Z,100628.84
2022-09-12T04:09:22.505Z,100627.95
2022-09-12T04:12:05.016Z,100629.51
2022-09-12T04:14:46.777Z,100628.85
2022-09-12T04:17:28.601Z,100632.40
2022-09-12T04:20:10.804Z,100630.71
2022-09-12T04:22:52.598Z,100631.16
2022-09-12T04:25:34.698Z,100632.50
2022-09-12T04:28:16.799Z,100633.23
2022-09-12T04:31:23.662Z,100632.98
2022-09-12T04:34:05.883Z,100629.63
2022-09-12T04:36:47.678Z,100633.38
2022-09-12T04:39:29.472Z,100632.95
2022-09-12T04:42:11.570Z,100625.21
2022-09-12T04:44:53.934Z,100627.11
2022-09-12T04:47:36.487Z,100630.59
2022-09-12T04:50:18.735Z,100628.40
2022-09-12T04:53:00.484Z,100630.08
2022-09-12T04:55:42.278Z,100631.08
2022-09-12T04:58:24.686Z,100630.06
2022-09-12T05:01:25.568Z,100634.91
2022-09-12T05:04:07.933Z,100636.81
2022-09-12T05:06:50.033Z,100639.60
2022-09-12T05:09:32.134Z,100641.77
2022-09-12T05:12:14.827Z,100640.66
2022-09-12T05:14:57.359Z,100642.31
2022-09-12T05:17:39.765Z,100639.48
2022-09-12T05:20:21.559Z,100643.15
2022-09-12T05:23:03.456Z,100645.16
2022-09-12T05:25:50.033Z,100647.60
2022-09-12T05:28:37.692Z,100646.06
2022-09-12T05:31:22.761Z,100646.70
2022-09-12T05:34:10.463Z,100651.70
2022-09-12T05:36:52.287Z,100655.88
2022-09-12T05:39:34.081Z,100666.31
2022-09-12T05:42:15.874Z,100663.34
2022-09-12T05:44:57.770Z,100663.33
2022-09-12T05:47:39.564Z,100661.46
2022-09-12T05:50:21.665Z,100660.45
2022-09-12T05:53:03.522Z,100664.31
2022-09-12T05:55:45.355Z,100670.52
2022-09-12T05:58:27.146Z,100674.36
2022-09-12T06:01:15.337Z,100677.81
2022-09-12T06:04:01.009Z,100679.70
2022-09-12T06:06:47.228Z,100679.54
2022-09-12T06:09:29.373Z,100681.89
2022-09-12T06:12:11.883Z,100682.54
2022-09-12T06:14:54.261Z,100681.56
2022-09-12T06:17:36.366Z,100685.11
2022-09-12T06:20:19.172Z,100681.68
2022-09-12T06:23:01.446Z,100677.50
2022-09-12T06:25:50.234Z,100678.38
2022-09-12T06:28:33.705Z,100677.52
2022-09-12T06:31:18.671Z,100679.45
2022-09-12T06:34:04.460Z,100681.57
2022-09-12T06:36:48.294Z,100681.70
2022-09-12T06:39:31.711Z,100677.99
2022-09-12T06:42:15.057Z,100683.20
2022-09-12T06:45:01.150Z,100685.45
2022-09-12T06:47:42.870Z,100684.65
2022-09-12T06:50:24.775Z,100683.35
2022-09-12T06:53:06.832Z,100686.27
2022-09-12T06:55:55.831Z,100688.91
2022-09-12T06:58:38.105Z,100684.66
2022-09-12T07:01:25.548Z,100685.21
2022-09-12T07:04:07.428Z,100683.20
2022-09-12T07:06:49.425Z,100685.61
2022-09-12T07:09:31.219Z,100691.23
2022-09-12T07:12:13.012Z,100690.56
2022-09-12T07:14:54.808Z,100689.64
2022-09-12T07:17:36.815Z,100693.13
2022-09-12T07:20:18.699Z,100688.64
2022-09-12T07:23:00.492Z,100688.23
2022-09-12T07:25:42.389Z,100690.80
2022-09-12T07:28:25.150Z,100686.98
2022-09-12T07:31:08.955Z,100688.58
2022-09-12T07:33:54.554Z,100695.86
2022-09-12T07:36:37.453Z,100702.37
2022-09-12T07:39:20.178Z,100703.41
2022-09-12T07:42:02.059Z,100705.48
2022-09-12T07:44:45.898Z,100708.52
2022-09-12T07:47:27.690Z,100712.21
2022-09-12T07:50:09.894Z,100714.75
2022-09-12T07:52:55.168Z,100708.86
2022-09-12T07:55:37.063Z,100710.86
2022-09-12T07:58:18.827Z,100711.26
2022-09-12T08:01:15.155Z,100715.55
2022-09-12T08:03:59.237Z,100715.52
2022-09-12T08:06:41.441Z,100721.55
2022-09-12T08:09:23.233Z,100722.94
2022-09-12T08:12:05.594Z,100720.59
2022-09-12T08:14:47.742Z,100720.59
2022-09-12T08:17:30.149Z,100715.70
2022-09-12T08:20:12.488Z,100711.75
2022-09-12T08:22:54.352Z,100714.59
2022-09-12T08:25:36.246Z,100713.63
2022-09-12T08:28:18.351Z,100714.83
2022-09-12T08:31:02.361Z,100720.58
2022-09-12T08:33:44.959Z,100717.48
2022-09-12T08:36:28.538Z,100718.39
2022-09-12T08:39:12.687Z,100721.80
2022-09-12T08:42:03.747Z,100715.80
2022-09-12T08:45:05.164Z,100715.08
2022-09-12T08:47:47.866Z,100716.77
2022-09-12T08:50:29.658Z,100710.92
2022-09-12T08:53:20.566Z,100719.00
2022-09-12T08:56:05.842Z,100717.60
2022-09-12T08:58:48.048Z,100711.79
2022-09-12T09:01:38.657Z,100708.52
2022-09-12T09:04:29.345Z,100707.90
2022-09-12T09:07:21.383Z,100705.75
2022-09-12T09:10:08.015Z,100705.90
2022-09-12T09:13:02.684Z,100708.34
2022-09-12T09:15:57.625Z,100707.90
2022-09-12T09:18:40.878Z,100705.11
2022-09-12T09:21:30.384Z,100705.30
2022-09-12T09:24:18.017Z,100709.00
2022-09-12T09:27:23.647Z,100706.26
2022-09-12T09:30:18.225Z,100707.01
2022-09-12T09:33:03.330Z,100701.83
2022-09-12T09:35:47.404Z,100703.81
2022-09-12T09:38:54.409Z,100697.27
2022-09-12T09:42:09.536Z,100696.70
2022-09-12T09:44:54.095Z,100694.97
2022-09-12T09:51:28.700Z,100696.84
2022-09-12T09:54:33.982Z,100692.50
2022-09-12T09:57:34.240Z,100689.47
2022-09-12T10:00:28.746Z,100688.95
2022-09-12T10:03:13.720Z,100689.69
2022-09-12T10:06:01.209Z,100689.33
2022-09-12T10:08:43.097Z,100690.48
2022-09-12T10:11:28.578Z,100686.56
2022-09-12T10:14:29.588Z,100689.40
2022-09-12T10:17:33.912Z,100685.48
2022-09-12T10:20:40.623Z,100684.01
2022-09-12T10:23:25.704Z,100686.96
2022-09-12T10:26:13.672Z,100683.71
2022-09-12T10:28:56.753Z,100681.28
2022-09-12T10:31:54.318Z,100684.99
2022-09-12T10:34:43.594Z,100684.80
2022-09-12T10:37:32.552Z,100680.77
2022-09-12T10:40:29.892Z,100681.37
2022-09-12T10:43:29.670Z,100680.05
2022-09-12T10:46:17.612Z,100675.80
2022-09-12T10:49:24.356Z,100669.73
2022-09-12T10:52:23.517Z,100666.67
2022-09-12T10:55:13.887Z,100664.44
2022-09-12T10:58:13.440Z,100670.45
2022-09-12T11:01:07.051Z,100664.77
2022-09-12T11:04:10.861Z,100656.52
2022-09-12T11:07:37.259Z,100656.38
2022-09-12T11:10:27.152Z,100651.16
2022-09-12T11:13:29.213Z,100650.98
2022-09-12T11:16:25.542Z,100651.52
2022-09-12T11:19:32.425Z,100653.83
2022-09-12T11:22:36.746Z,100654.50
2022-09-12T11:25:37.894Z,100650.59
2022-09-12T11:28:32.179Z,100652.92
2022-09-12T11:31:39.163Z,100646.98
2022-09-12T11:34:33.040Z,100644.21
2022-09-12T11:37:53.735Z,100648.52
2022-09-12T11:40:59.399Z,100646.49
2022-09-12T11:43:52.046Z,100648.67
2022-09-12T11:46:40.898Z,100650.55
2022-09-12T11:49:35.419Z,100653.23
2022-09-12T11:52:29.249Z,100658.85
2022-09-12T11:55:17.911Z,100657.95
2022-09-12T11:58:00.111Z,100660.06
2022-09-12T12:00:48.230Z,100665.14
2022-09-12T12:03:40.993Z,100669.48
2022-09-12T12:06:38.790Z,100664.52
2022-09-12T12:09:21.174Z,100662.17
2022-09-12T12:12:08.317Z,100666.80
2022-09-12T12:14:52.275Z,100663.77
2022-09-12T12:17:34.363Z,100666.85
2022-09-12T12:20:18.203Z,100664.86
2022-09-12T12:23:01.213Z,100663.70
2022-09-12T12:26:00.732Z,100665.50
2022-09-12T12:29:02.928Z,100662.40
2022-09-12T12:32:04.978Z,100665.48
2022-09-12T12:34:48.201Z,100670.09
2022-09-12T12:37:31.438Z,100665.81
2022-09-12T12:40:27.046Z,100665.61
2022-09-12T12:43:32.033Z,100657.23
2022-09-12T12:46:15.844Z,100655.45
2022-09-12T12:49:10.736Z,100653.05
2022-09-12T12:51:59.177Z,100653.07
2022-09-12T12:54:41.272Z,100651.58
2022-09-12T12:57:48.768Z,100653.59
2022-09-12T13:00:35.054Z,100651.98
2022-09-12T13:03:32.071Z,100650.32
2022-09-12T13:06:31.731Z,100651.02
2022-09-12T13:09:29.394Z,100649.44
2022-09-12T13:12:19.891Z,100645.13
2022-09-12T13:15:23.690Z,100643.67
2022-09-12T13:18:14.710Z,100640.27
2022-09-12T13:21:09.834Z,100636.33
2022-09-12T13:24:15.285Z,100634.19
2022-09-12T13:27:00.230Z,100632.52
2022-09-12T13:29:42.364Z,100630.69
2022-09-12T13:32:24.534Z,100629.20
2022-09-12T13:35:19.738Z,100625.07
2022-09-12T13:38:28.489Z,100621.21
2022-09-12T13:41:32.278Z,100617.04
2022-09-12T13:44:18.762Z,100618.33
2022-09-12T13:47:02.928Z,100616.08
2022-09-12T13:49:46.361Z,100617.90
2022-09-12T13:52:34.863Z,100617.27
2022-09-12T13:55:29.403Z,100618.55
2022-09-12T13:58:32.290Z,100615.20
2022-09-12T14:01:15.886Z,100613.55
2022-09-12T14:04:16.463Z,100605.99
2022-09-12T14:07:00.970Z,100607.58
2022-09-12T14:09:47.315Z,100604.46
2022-09-12T14:12:37.200Z,100607.83
2022-09-12T14:15:26.233Z,100608.11
2022-09-12T14:18:08.891Z,100605.46
2022-09-12T14:20:53.396Z,100604.68
2022-09-12T14:23:39.528Z,100599.39
2022-09-12T14:26:23.678Z,100596.94
2022-09-12T14:29:06.598Z,100598.17
2022-09-12T14:32:01.600Z,100596.27
2022-09-12T14:35:12.372Z,100595.90
2022-09-12T14:37:54.166Z,100593.26
2022-09-12T14:40:42.927Z,100596.92
2022-09-12T14:43:28.726Z,100596.84
2022-09-12T14:46:32.205Z,100595.48
2022-09-12T14:49:37.422Z,100594.94
2022-09-12T14:52:28.133Z,100591.55
2022-09-12T14:55:16.305Z,100590.48
2022-09-12T14:58:26.443Z,100589.11
2022-09-12T15:01:08.535Z,100584.33
2022-09-12T15:03:56.118Z,100586.60
2022-09-12T15:06:39.572Z,100584.00
2022-09-12T15:09:21.414Z,100582.69
2022-09-12T15:12:03.205Z,100583.50
2022-09-12T15:14:44.971Z,100586.99
2022-09-12T15:17:26.793Z,100592.10
2022-09-12T15:20:10.222Z,100594.58
2022-09-12T15:22:52.837Z,100595.86
2022-09-12T15:25:34.732Z,100594.24
2022-09-12T15:28:19.788Z,100595.96
2022-09-12T15:31:19.274Z,100596.52
2022-09-12T15:34:02.907Z,100592.81
2022-09-12T15:36:44.821Z,100593.95
2022-09-12T15:39:27.742Z,100594.41
2022-09-12T15:42:11.337Z,100594.08
2022-09-12T15:44:53.909Z,100594.26
2022-09-12T15:47:35.703Z,100595.71
2022-09-12T15:50:18.008Z,100600.40
2022-09-12T15:52:59.801Z,100597.55
2022-09-12T15:55:42.317Z,100595.52
2022-09-12T15:58:24.039Z,100599.93
2022-09-12T16:01:05.899Z,100597.08
2022-09-12T16:03:48.959Z,100596.25
2022-09-12T16:06:37.246Z,100592.91
2022-09-12T16:09:19.471Z,100589.31
2022-09-12T16:12:13.489Z,100591.36
2022-09-12T16:14:57.886Z,100592.35
2022-09-12T16:17:39.827Z,100589.69
2022-09-12T16:20:22.515Z,100591.51
2022-09-12T16:23:04.411Z,100591.61
2022-09-12T16:25:46.717Z,100591.36
2022-09-12T16:28:29.430Z,100592.66
2022-09-12T16:31:14.069Z,100592.48
2022-09-12T16:33:58.022Z,100595.98
2022-09-12T16:37:02.621Z,100590.98
2022-09-12T16:40:04.535Z,100592.55
2022-09-12T16:43:19.666Z,100592.65
2022-09-12T16:46:14.185Z,100594.68
2022-09-12T16:48:58.210Z,100594.58
2022-09-12T16:51:59.323Z,100590.30
2022-09-12T16:54:41.693Z,100588.25
2022-09-12T16:57:24.526Z,100588.19
2022-09-12T17:00:08.553Z,100583.23
2022-09-12T17:02:50.713Z,100579.64
2022-09-12T17:06:29.941Z,100576.14
2022-09-12T17:09:36.204Z,100575.94
2022-09-12T17:13:17.129Z,100575.25
2022-09-12T17:16:50.830Z,100575.30
2022-09-12T17:19:51.087Z,100577.20
2022-09-12T17:22:34.126Z,100583.70
2022-09-12T17:25:15.987Z,100589.48
2022-09-12T17:27:57.987Z,100589.77
2022-09-12T17:30:40.234Z,100590.10
2022-09-12T17:33:22.612Z,100590.59
2022-09-12T17:36:07.068Z,100588.83
2022-09-12T17:38:50.198Z,100594.83
2022-09-12T17:41:33.825Z,100593.66
2022-09-12T17:44:16.437Z,100594.85
2022-09-12T17:47:00.240Z,100593.45
2022-09-12T17:49:42.875Z,100596.70
2022-09-12T17:52:25.507Z,100598.52
2022-09-12T17:55:08.734Z,100596.98
2022-09-12T17:57:51.041Z,100600.19
2022-09-12T18:00:52.696Z,100594.51
2022-09-12T18:03:36.722Z,100592.23
2022-09-12T18:06:38.121Z,100593.34
2022-09-12T18:09:24.400Z,100595.23
2022-09-12T18:12:08.640Z,100596.51
2022-09-12T18:14:51.154Z,100601.95
2022-09-12T18:17:34.175Z,100596.36
2022-09-12T18:20:17.710Z,100592.48
2022-09-12T18:23:00.801Z,100595.05
2022-09-12T18:25:43.449Z,100599.16
2022-09-12T18:28:26.161Z,100599.04
2022-09-12T18:31:14.604Z,100603.02
2022-09-12T18:33:57.886Z,100599.77
2022-09-12T18:36:41.986Z,100599.82
2022-09-12T18:39:27.711Z,100598.23
2022-09-12T18:42:10.285Z,100596.09
2022-09-12T18:44:52.897Z,100594.09
2022-09-12T18:47:35.304Z,100592.34
2022-09-12T18:50:17.712Z,100591.86
2022-09-12T18:53:00.134Z,100588.74
2022-09-12T19:11:54.670Z,100584.73
2022-09-12T19:14:36.851Z,100581.89
2022-09-12T19:21:16.317Z,100584.10
2022-09-12T19:24:36.101Z,100586.02
2022-09-12T19:27:18.202Z,100582.85
2022-09-12T19:30:00.406Z,100578.09
2022-09-12T19:32:42.709Z,100575.40
2022-09-12T19:35:25.356Z,100569.71
2022-09-12T19:38:30.437Z,100565.14
2022-09-12T19:41:49.548Z,100566.45
2022-09-12T19:44:38.524Z,100573.07
2022-09-12T19:47:20.594Z,100574.86
2022-09-12T19:50:02.759Z,100571.34
2022-09-12T19:52:44.795Z,100571.00
2022-09-12T19:59:48.426Z,100563.27
2022-09-12T20:02:31.736Z,100557.04
2022-09-12T20:05:16.830Z,100555.35
2022-09-12T20:07:59.028Z,100555.98
2022-09-12T20:10:40.923Z,100559.19
2022-09-12T20:13:22.655Z,100559.86
2022-09-12T20:16:09.874Z,100564.04
2022-09-12T20:18:59.982Z,100565.58
2022-09-12T20:21:41.906Z,100562.71
2022-09-12T20:24:24.698Z,100563.84
2022-09-12T20:27:06.942Z,100559.40
2022-09-12T20:29:48.736Z,100558.77
2022-09-12T20:32:31.040Z,100560.11
2022-09-12T20:35:12.853Z,100557.05
2022-09-12T20:37:54.835Z,100557.21
2022-09-12T20:40:36.526Z,100551.27
2022-09-12T20:43:18.828Z,100551.13
2022-09-12T20:46:06.247Z,100547.66
2022-09-12T20:48:48.481Z,100547.65
2022-09-12T20:51:30.865Z,100551.02
2022-09-12T20:54:16.839Z,100552.05
2022-09-12T20:56:59.365Z,100550.73
2022-09-12T20:59:42.797Z,100548.81
2022-09-12T21:02:24.723Z,100546.24
2022-09-12T21:05:07.510Z,100544.85
2022-09-12T21:07:49.306Z,100542.48
2022-09-12T21:10:34.374Z,100538.96
2022-09-12T21:13:16.167Z,100536.55
2022-09-12T21:16:05.919Z,100531.77
2022-09-12T21:18:52.964Z,100533.64
2022-09-12T21:21:34.961Z,100532.09
2022-09-12T21:24:18.393Z,100533.42
2022-09-12T21:27:04.141Z,100536.41
2022-09-12T21:29:46.383Z,100536.70
2022-09-12T21:32:32.682Z,100534.09
2022-09-12T21:35:14.577Z,100527.16
2022-09-12T21:37:56.576Z,100527.98
2022-09-12T21:40:38.309Z,100529.34
2022-09-12T21:43:20.453Z,100528.50
2022-09-12T21:46:03.175Z,100527.42
2022-09-12T21:48:45.592Z,100528.55
2022-09-12T21:51:27.387Z,100527.75
2022-09-12T21:54:09.179Z,100519.37
2022-09-12T21:56:50.974Z,100523.91
2022-09-12T21:59:32.765Z,100524.68
2022-09-12T22:02:16.162Z,100523.72
2022-09-12T22:04:58.096Z,100527.39
2022-09-12T22:07:40.297Z,100525.05
2022-09-12T22:10:22.093Z,100529.13
2022-09-12T22:13:05.317Z,100527.70
2022-09-12T22:15:52.131Z,100526.55
2022-09-12T22:18:36.275Z,100528.98
2022-09-12T22:21:20.220Z,100532.60
2022-09-12T22:24:21.082Z,100530.19
2022-09-12T22:27:05.793Z,100527.11
2022-09-12T22:29:50.729Z,100524.86
2022-09-12T22:32:35.963Z,100518.45
2022-09-12T22:35:18.781Z,100511.69
2022-09-12T22:38:00.778Z,100512.13
2022-09-12T22:40:42.572Z,100504.77
2022-09-12T22:43:24.468Z,100504.37
2022-09-12T22:46:08.091Z,100500.18
2022-09-12T22:48:50.819Z,100498.14
2022-09-12T22:51:33.122Z,100494.77
2022-09-12T22:54:15.020Z,100492.60
2022-09-12T22:56:57.120Z,100492.44
2022-09-12T22:59:38.914Z,100495.05
2022-09-12T23:02:21.220Z,100493.06
2022-09-12T23:05:03.115Z,100494.16
2022-09-12T23:07:44.907Z,100487.45
2022-09-12T23:10:27.213Z,100482.89
2022-09-12T23:13:09.723Z,100477.64
2022-09-12T23:15:57.770Z,100479.05
2022-09-12T23:18:39.556Z,100478.06
2022-09-12T23:21:22.069Z,100477.75
2022-09-12T23:24:04.576Z,100478.35
2022-09-12T23:26:46.882Z,100475.69
2022-09-12T23:29:28.675Z,100476.27
2022-09-12T23:32:10.673Z,100470.06
2022-09-12T23:34:53.183Z,100467.45
2022-09-12T23:37:34.876Z,100465.33
2022-09-12T23:40:17.356Z,100461.95
2022-09-12T23:42:59.384Z,100455.39
2022-09-12T23:45:41.327Z,100455.75
2022-09-12T23:48:23.583Z,100453.94
2022-09-12T23:51:05.888Z,100451.81
2022-09-12T23:53:48.092Z,100455.85
2022-09-12T23:56:29.911Z,100449.48
2022-09-12T23:59:11.678Z,100445.48
